Time;durP1;ratioP1;P1;durP2;ratioP2;P2;SDS_P1;SDS_P2;PMS_P1;PMS_P2;Temp;Humidity;BMP_temperature;BMP_pressure;BME280_temperature;BME280_humidity;BME280_pressure;Samples;Min_cycle;Max_cycle;Signal;HPM_P1;HPM_P2
2022/09/19 00:01:54;;;;;;;0.93;0.93;;;;;;;;;;4975724;28;20174;-74
2022/09/19 00:04:21;;;;;;;1.10;1.10;;;;;;;;;;4991815;28;20210;-74
2022/09/19 00:06:47;;;;;;;1.00;1.00;;;;;;;;;;4992009;28;20207;-74
2022/09/19 00:09:16;;;;;;;1.97;1.10;;;;;;;;;;5003405;28;20191;-74
2022/09/19 00:11:43;;;;;;;1.20;1.20;;;;;;;;;;4991429;28;20191;-74
2022/09/19 00:14:10;;;;;;;1.50;1.40;;;;;;;;;;4976846;28;20188;-74
2022/09/19 00:16:38;;;;;;;1.50;1.30;;;;;;;;;;5007535;28;20201;-74
2022/09/19 00:19:04;;;;;;;2.17;1.30;;;;;;;;;;4972806;28;20175;-73
2022/09/19 00:21:40;;;;;;;1.67;1.47;;;;;;;;;;4982880;28;20760;-73
2022/09/19 00:26:50;;;;;;;1.57;1.47;;;;;;;;;;4993126;28;20198;-73
2022/09/19 00:29:16;;;;;;;4.67;1.73;;;;;;;;;;4975666;28;20182;-74
2022/09/19 00:31:43;;;;;;;2.00;1.90;;;;;;;;;;4968362;28;20197;-73
2022/09/19 00:34:09;;;;;;;3.67;2.00;;;;;;;;;;4982882;28;20178;-73
2022/09/19 00:36:34;;;;;;;1.93;1.83;;;;;;;;;;4988743;28;20210;-73
2022/09/19 00:39:00;;;;;;;2.17;2.00;;;;;;;;;;4975864;28;20181;-73
2022/09/19 00:41:26;;;;;;;1.80;1.70;;;;;;;;;;5004249;28;20183;-73
2022/09/19 00:43:55;;;;;;;1.97;1.87;;;;;;;;;;4973040;28;20181;-73
2022/09/19 00:46:21;;;;;;;1.77;1.67;;;;;;;;;;4995641;28;20189;-74
2022/09/19 00:48:52;;;;;;;1.70;1.60;;;;;;;;;;4993031;28;20183;-73
2022/09/19 00:51:27;;;;;;;1.67;1.57;;;;;;;;;;4992288;28;20190;-74
2022/09/19 00:53:52;;;;;;;1.63;1.53;;;;;;;;;;5003670;28;20187;-73
2022/09/19 00:56:18;;;;;;;1.50;1.40;;;;;;;;;;4973797;28;20250;-73
2022/09/19 00:58:44;;;;;;;2.27;1.23;;;;;;;;;;4991572;28;20198;-73
2022/09/19 01:01:10;;;;;;;1.30;1.20;;;;;;;;;;4984417;28;20184;-74
2022/09/19 01:03:35;;;;;;;1.10;1.00;;;;;;;;;;4979462;28;20186;-74
2022/09/19 01:06:03;;;;;;;0.87;0.87;;;;;;;;;;4989961;28;20199;-74
2022/09/19 01:08:43;;;;;;;0.93;0.90;;;;;;;;;;4994572;28;20179;-73
2022/09/19 01:11:12;;;;;;;2.87;1.20;;;;;;;;;;4988804;28;20299;-73
2022/09/19 01:13:59;;;;;;;1.63;1.10;;;;;;;;;;5003451;28;20228;-73
2022/09/19 01:16:33;;;;;;;1.90;1.20;;;;;;;;;;4972667;28;20194;-73
2022/09/19 01:19:05;;;;;;;1.20;1.10;;;;;;;;;;4981008;28;20190;-74
2022/09/19 01:21:40;;;;;;;0.73;0.73;;;;;;;;;;4991941;28;20179;-73
2022/09/19 01:24:24;;;;;;;0.77;0.77;;;;;;;;;;4973570;28;20189;-73
2022/09/19 01:26:59;;;;;;;1.10;0.97;;;;;;;;;;5000417;28;20220;-74
2022/09/19 01:29:32;;;;;;;1.40;1.03;;;;;;;;;;4971249;28;20219;-74
2022/09/19 01:31:59;;;;;;;1.83;0.90;;;;;;;;;;4988270;28;20183;-73
2022/09/19 01:34:28;;;;;;;1.67;0.90;;;;;;;;;;4975573;28;20180;-73
2022/09/19 01:37:00;;;;;;;2.13;0.90;;;;;;;;;;5000187;28;20252;-74
2022/09/19 01:39:29;;;;;;;0.97;0.77;;;;;;;;;;4991027;28;20197;-74
2022/09/19 01:41:57;;;;;;;1.10;0.90;;;;;;;;;;4999923;28;20188;-74
2022/09/19 01:44:23;;;;;;;3.17;0.90;;;;;;;;;;4993217;28;20187;-73
2022/09/19 01:46:49;;;;;;;0.87;0.83;;;;;;;;;;4990386;28;20184;-74
2022/09/19 01:49:25;;;;;;;2.17;0.90;;;;;;;;;;4975249;28;20182;-74
2022/09/19 01:51:57;;;;;;;1.87;0.80;;;;;;;;;;4975954;28;20209;-73
2022/09/19 01:54:27;;;;;;;1.80;1.07;;;;;;;;;;4985394;28;20212;-73
2022/09/19 01:57:16;;;;;;;1.20;1.10;;;;;;;;;;4993814;28;20260;-73
2022/09/19 01:59:59;;;;;;;1.40;0.90;;;;;;;;;;4950269;28;20191;-73
2022/09/19 02:02:24;;;;;;;2.70;1.27;;;;;;;;;;4984018;28;20215;-73
2022/09/19 02:04:56;;;;;;;3.80;1.23;;;;;;;;;;4976708;28;20232;-74
2022/09/19 02:07:44;;;;;;;1.83;1.60;;;;;;;;;;4971502;28;20182;-73
2022/09/19 02:10:19;;;;;;;2.43;1.13;;;;;;;;;;4987460;28;20533;-74
2022/09/19 02:12:47;;;;;;;1.27;0.97;;;;;;;;;;5002000;28;20253;-73
2022/09/19 02:15:14;;;;;;;2.00;1.00;;;;;;;;;;5002625;28;20231;-73
2022/09/19 02:17:44;;;;;;;2.43;1.20;;;;;;;;;;4975210;28;20316;-74
2022/09/19 02:20:13;;;;;;;2.47;1.30;;;;;;;;;;4994610;28;20200;-74
2022/09/19 02:22:40;;;;;;;1.67;1.37;;;;;;;;;;4995232;28;20253;-73
2022/09/19 02:25:08;;;;;;;2.10;1.10;;;;;;;;;;5002335;28;20211;-74
2022/09/19 02:27:37;;;;;;;6.67;1.50;;;;;;;;;;4990913;28;20198;-73
2022/09/19 02:30:05;;;;;;;2.40;1.20;;;;;;;;;;5005854;28;20189;-74
2022/09/19 02:32:31;;;;;;;2.23;1.23;;;;;;;;;;4981947;28;20192;-74
2022/09/19 02:34:56;;;;;;;1.57;1.47;;;;;;;;;;4982131;28;20187;-74
2022/09/19 02:37:26;;;;;;;1.67;1.10;;;;;;;;;;4985438;28;20211;-73
2022/09/19 02:40:04;;;;;;;1.93;1.33;;;;;;;;;;4997654;28;20193;-73
2022/09/19 02:42:43;;;;;;;1.70;1.17;;;;;;;;;;4976108;28;20179;-74
2022/09/19 02:45:09;;;;;;;2.10;1.20;;;;;;;;;;5007297;28;20180;-73
2022/09/19 02:47:40;;;;;;;2.57;1.20;;;;;;;;;;5012193;28;20232;-73
2022/09/19 02:50:11;;;;;;;2.43;1.43;;;;;;;;;;4999100;28;20174;-73
2022/09/19 02:52:37;;;;;;;2.03;1.70;;;;;;;;;;4989181;28;20215;-73
2022/09/19 02:55:15;;;;;;;3.87;2.20;;;;;;;;;;5004106;28;20251;-73
2022/09/19 02:57:42;;;;;;;1.43;1.33;;;;;;;;;;5004247;28;20295;-73
2022/09/19 03:00:07;;;;;;;2.27;1.30;;;;;;;;;;4974445;28;20511;-73
2022/09/19 03:02:36;;;;;;;2.57;1.50;;;;;;;;;;5003993;28;20209;-73
2022/09/19 03:05:08;;;;;;;1.50;1.40;;;;;;;;;;5005359;28;20208;-73
2022/09/19 03:07:36;;;;;;;2.33;1.50;;;;;;;;;;4972683;28;20247;-73
2022/09/19 03:10:05;;;;;;;2.40;1.40;;;;;;;;;;4997357;28;20264;-73
2022/09/19 03:12:40;;;;;;;3.20;1.80;;;;;;;;;;4981674;28;20233;-73
2022/09/19 03:15:06;;;;;;;2.70;1.53;;;;;;;;;;4985739;28;20472;-73
2022/09/19 03:17:35;;;;;;;2.40;1.60;;;;;;;;;;4977596;28;20199;-73
2022/09/19 03:20:00;;;;;;;1.60;1.50;;;;;;;;;;5005757;28;20186;-73
2022/09/19 03:22:26;;;;;;;4.50;1.40;;;;;;;;;;4987885;28;20183;-75
2022/09/19 03:24:51;;;;;;;3.87;1.90;;;;;;;;;;4993643;28;20178;-76
2022/09/19 03:27:16;;;;;;;1.80;1.70;;;;;;;;;;4995091;28;20181;-73
2022/09/19 03:29:41;;;;;;;5.50;2.30;;;;;;;;;;4978990;28;20196;-73
2022/09/19 03:32:07;;;;;;;1.63;1.43;;;;;;;;;;4994334;28;20188;-73
2022/09/19 03:34:33;;;;;;;5.60;1.60;;;;;;;;;;4999577;28;20181;-73
2022/09/19 03:36:58;;;;;;;1.80;1.57;;;;;;;;;;5009258;28;20198;-73
2022/09/19 03:39:23;;;;;;;2.87;1.70;;;;;;;;;;4980684;28;20186;-73
2022/09/19 03:41:50;;;;;;;2.83;1.60;;;;;;;;;;4978235;28;20184;-73
2022/09/19 03:44:17;;;;;;;5.80;2.20;;;;;;;;;;4990315;28;20238;-73
2022/09/19 03:46:46;;;;;;;3.33;2.10;;;;;;;;;;4991468;28;20216;-73
2022/09/19 03:49:11;;;;;;;2.30;2.10;;;;;;;;;;4974930;28;20183;-73
2022/09/19 03:51:37;;;;;;;4.67;2.23;;;;;;;;;;4977327;28;20245;-73
2022/09/19 03:54:02;;;;;;;2.43;1.93;;;;;;;;;;5006399;28;20187;-73
2022/09/19 03:56:27;;;;;;;4.23;1.90;;;;;;;;;;5002247;28;20200;-73
2022/09/19 03:58:53;;;;;;;3.27;1.87;;;;;;;;;;4979025;28;20181;-73
2022/09/19 04:01:18;;;;;;;7.83;2.70;;;;;;;;;;4991414;28;20181;-74
2022/09/19 04:03:43;;;;;;;3.97;1.70;;;;;;;;;;4995677;28;20172;-73
2022/09/19 04:06:09;;;;;;;2.87;1.80;;;;;;;;;;4978863;28;20193;-73
2022/09/19 04:08:34;;;;;;;9.10;2.00;;;;;;;;;;4989260;28;20247;-73
2022/09/19 04:10:59;;;;;;;3.83;1.80;;;;;;;;;;4989415;28;20183;-73
2022/09/19 04:13:25;;;;;;;2.60;1.67;;;;;;;;;;5002422;28;20244;-76
2022/09/19 04:15:50;;;;;;;3.90;2.07;;;;;;;;;;4999198;28;20327;-76
2022/09/19 04:18:16;;;;;;;2.87;1.93;;;;;;;;;;4973672;28;20216;-76
2022/09/19 04:20:41;;;;;;;2.50;1.73;;;;;;;;;;5002251;28;20179;-76
2022/09/19 04:23:07;;;;;;;5.17;2.00;;;;;;;;;;4968396;28;20259;-73
2022/09/19 04:25:34;;;;;;;3.27;1.90;;;;;;;;;;4992257;28;20186;-76
2022/09/19 04:28:02;;;;;;;4.90;1.93;;;;;;;;;;5002025;28;20182;-76
2022/09/19 04:30:27;;;;;;;4.77;1.70;;;;;;;;;;4993410;28;20166;-73
2022/09/19 04:32:52;;;;;;;6.40;2.00;;;;;;;;;;5002193;28;20205;-73
2022/09/19 04:35:18;;;;;;;5.87;2.33;;;;;;;;;;4964855;28;20186;-73
2022/09/19 04:37:44;;;;;;;5.03;2.53;;;;;;;;;;4983514;28;20199;-73
2022/09/19 04:40:12;;;;;;;4.30;1.80;;;;;;;;;;4972459;28;20183;-73
2022/09/19 04:42:37;;;;;;;4.43;2.07;;;;;;;;;;4977857;28;20173;-73
2022/09/19 04:45:03;;;;;;;2.67;1.90;;;;;;;;;;4989103;28;20196;-73
2022/09/19 04:47:32;;;;;;;3.43;2.00;;;;;;;;;;4970829;28;20273;-73
2022/09/19 04:49:57;;;;;;;2.43;1.87;;;;;;;;;;4989162;28;20193;-73
2022/09/19 04:52:23;;;;;;;8.33;2.17;;;;;;;;;;4979645;28;20189;-73
2022/09/19 04:54:48;;;;;;;3.17;1.97;;;;;;;;;;5002279;28;20177;-73
2022/09/19 04:57:15;;;;;;;4.40;2.00;;;;;;;;;;4979110;28;20269;-73
2022/09/19 04:59:41;;;;;;;4.80;1.63;;;;;;;;;;4990776;28;20209;-73
2022/09/19 05:02:08;;;;;;;2.60;2.07;;;;;;;;;;4968053;28;20170;-76
2022/09/19 05:04:33;;;;;;;16.50;2.27;;;;;;;;;;4972539;28;20187;-76
2022/09/19 05:06:59;;;;;;;9.10;2.57;;;;;;;;;;4999635;28;20202;-73
2022/09/19 05:09:25;;;;;;;3.93;1.90;;;;;;;;;;4977246;28;20192;-73
2022/09/19 05:11:50;;;;;;;7.23;2.10;;;;;;;;;;4976380;28;20193;-73
2022/09/19 05:14:17;;;;;;;2.70;2.10;;;;;;;;;;4976748;28;20205;-73
2022/09/19 05:16:42;;;;;;;5.40;2.10;;;;;;;;;;4991148;28;20204;-73
2022/09/19 05:19:08;;;;;;;4.87;2.03;;;;;;;;;;4994335;28;20185;-73
2022/09/19 05:21:33;;;;;;;5.97;2.20;;;;;;;;;;5000773;28;20197;-73
2022/09/19 05:23:59;;;;;;;7.37;2.30;;;;;;;;;;4973590;28;20187;-73
2022/09/19 05:26:24;;;;;;;5.93;2.33;;;;;;;;;;4971967;28;20267;-73
2022/09/19 05:28:50;;;;;;;5.83;2.53;;;;;;;;;;4993621;28;20189;-73
2022/09/19 05:31:16;;;;;;;4.37;2.30;;;;;;;;;;4983297;28;20188;-73
2022/09/19 05:33:42;;;;;;;4.50;2.00;;;;;;;;;;4973613;28;20196;-73
2022/09/19 05:36:07;;;;;;;8.37;2.60;;;;;;;;;;4972782;28;20182;-73
2022/09/19 05:38:34;;;;;;;2.80;1.73;;;;;;;;;;4990684;28;20208;-76
2022/09/19 05:41:00;;;;;;;5.43;2.00;;;;;;;;;;4989784;28;20243;-76
2022/09/19 05:43:26;;;;;;;6.17;2.57;;;;;;;;;;4973027;28;20190;-73
2022/09/19 05:45:52;;;;;;;5.37;1.83;;;;;;;;;;4993893;28;20256;-73
2022/09/19 05:48:18;;;;;;;3.87;2.13;;;;;;;;;;4983798;28;20188;-73
2022/09/19 05:50:43;;;;;;;9.30;2.43;;;;;;;;;;4979202;28;20186;-73
2022/09/19 05:55:53;;;;;;;4.07;2.07;;;;;;;;;;4983997;28;20192;-73
2022/09/19 05:58:19;;;;;;;4.00;2.17;;;;;;;;;;4980584;28;20297;-73
2022/09/19 06:00:44;;;;;;;6.03;1.80;;;;;;;;;;4980105;28;20176;-73
2022/09/19 06:03:11;;;;;;;7.10;2.10;;;;;;;;;;4978974;28;20192;-73
2022/09/19 06:05:38;;;;;;;4.13;2.30;;;;;;;;;;4992544;28;20243;-73
2022/09/19 06:08:04;;;;;;;5.13;1.97;;;;;;;;;;5004211;28;20185;-75
2022/09/19 06:10:32;;;;;;;6.53;2.53;;;;;;;;;;4991585;28;20209;-74
2022/09/19 06:12:57;;;;;;;2.40;1.83;;;;;;;;;;4983552;28;20230;-74
2022/09/19 06:15:22;;;;;;;4.07;1.77;;;;;;;;;;4978017;28;20182;-74
2022/09/19 06:17:54;;;;;;;8.53;2.67;;;;;;;;;;4975681;28;20232;-74
2022/09/19 06:20:20;;;;;;;7.93;2.13;;;;;;;;;;4976336;28;20290;-74
2022/09/19 06:22:45;;;;;;;6.67;2.03;;;;;;;;;;4971867;28;20249;-74
2022/09/19 06:25:12;;;;;;;8.00;2.13;;;;;;;;;;4980335;28;20313;-74
2022/09/19 06:27:38;;;;;;;9.17;1.90;;;;;;;;;;4979304;28;20204;-74
2022/09/19 06:30:05;;;;;;;3.00;1.50;;;;;;;;;;4989753;28;20217;-74
2022/09/19 06:32:30;;;;;;;4.13;1.80;;;;;;;;;;4975317;28;20193;-74
2022/09/19 06:34:55;;;;;;;4.97;2.73;;;;;;;;;;5002242;28;20183;-74
2022/09/19 06:37:21;;;;;;;5.90;2.87;;;;;;;;;;4968761;28;20208;-74
2022/09/19 06:39:46;;;;;;;7.10;2.10;;;;;;;;;;4969474;28;20191;-74
2022/09/19 06:42:11;;;;;;;4.40;1.93;;;;;;;;;;4992695;28;20214;-74
2022/09/19 06:44:36;;;;;;;11.23;2.50;;;;;;;;;;4974630;28;20307;-74
2022/09/19 06:47:01;;;;;;;6.27;2.10;;;;;;;;;;4994208;28;20232;-74
2022/09/19 06:49:27;;;;;;;6.17;2.27;;;;;;;;;;4989395;28;20191;-74
2022/09/19 06:51:54;;;;;;;7.50;2.10;;;;;;;;;;4988542;28;20178;-73
2022/09/19 06:54:21;;;;;;;4.67;2.07;;;;;;;;;;4991588;28;20187;-73
2022/09/19 06:56:47;;;;;;;4.33;1.90;;;;;;;;;;5001775;28;20204;-74
2022/09/19 06:59:12;;;;;;;5.47;3.10;;;;;;;;;;4982220;28;20184;-74
2022/09/19 07:01:38;;;;;;;4.80;2.33;;;;;;;;;;4958836;28;20186;-74
2022/09/19 07:04:03;;;;;;;5.33;2.67;;;;;;;;;;4980336;28;20207;-74
2022/09/19 07:06:30;;;;;;;5.40;2.63;;;;;;;;;;4971325;28;20211;-74
2022/09/19 07:08:57;;;;;;;6.67;2.00;;;;;;;;;;4977473;28;20182;-74
2022/09/19 07:11:23;;;;;;;5.10;2.50;;;;;;;;;;4983304;28;20182;-73
2022/09/19 07:13:49;;;;;;;7.57;2.10;;;;;;;;;;4988137;28;20221;-74
2022/09/19 07:16:14;;;;;;;7.07;2.40;;;;;;;;;;4965087;28;20197;-74
2022/09/19 07:18:39;;;;;;;8.00;2.53;;;;;;;;;;4980394;28;20188;-74
2022/09/19 07:21:05;;;;;;;13.60;3.30;;;;;;;;;;4999174;28;20207;-74
2022/09/19 07:23:30;;;;;;;3.00;2.13;;;;;;;;;;4975224;28;20265;-74
2022/09/19 07:25:55;;;;;;;6.93;2.30;;;;;;;;;;4987328;28;20216;-74
2022/09/19 07:28:21;;;;;;;8.73;2.63;;;;;;;;;;4976035;28;20213;-74
2022/09/19 07:30:47;;;;;;;9.57;2.97;;;;;;;;;;4971667;28;20283;-74
2022/09/19 07:33:13;;;;;;;9.37;2.70;;;;;;;;;;4974068;28;20194;-74
2022/09/19 07:35:41;;;;;;;8.80;2.67;;;;;;;;;;4992643;28;20191;-73
2022/09/19 07:38:08;;;;;;;11.87;3.00;;;;;;;;;;4973679;28;20212;-72
2022/09/19 07:40:33;;;;;;;5.63;2.53;;;;;;;;;;4974333;28;20178;-71
2022/09/19 07:43:01;;;;;;;7.40;2.90;;;;;;;;;;4977659;28;20184;-72
2022/09/19 07:45:26;;;;;;;6.80;3.20;;;;;;;;;;4991370;28;20224;-72
2022/09/19 07:47:52;;;;;;;4.73;2.83;;;;;;;;;;4994312;28;20207;-72
2022/09/19 07:50:18;;;;;;;13.33;3.37;;;;;;;;;;4983915;28;20181;-72
2022/09/19 07:52:46;;;;;;;7.87;3.33;;;;;;;;;;4967588;28;20191;-72
2022/09/19 07:55:11;;;;;;;4.37;2.83;;;;;;;;;;4991160;28;20188;-71
2022/09/19 07:57:37;;;;;;;8.63;2.50;;;;;;;;;;4973005;28;20210;-72
2022/09/19 08:00:03;;;;;;;3.40;2.50;;;;;;;;;;4982554;28;20185;-72
2022/09/19 08:02:28;;;;;;;9.23;3.23;;;;;;;;;;4984704;28;20218;-72
2022/09/19 08:04:53;;;;;;;5.90;3.30;;;;;;;;;;4987706;28;20315;-71
2022/09/19 08:07:19;;;;;;;11.10;2.77;;;;;;;;;;4967274;28;20178;-71
2022/09/19 08:09:44;;;;;;;9.03;2.70;;;;;;;;;;4985704;28;20452;-72
2022/09/19 08:12:11;;;;;;;5.93;3.53;;;;;;;;;;4972789;28;20273;-72
2022/09/19 08:14:37;;;;;;;4.60;3.67;;;;;;;;;;4973593;28;20213;-71
2022/09/19 08:17:02;;;;;;;6.37;3.83;;;;;;;;;;4971445;28;20201;-72
2022/09/19 08:19:28;;;;;;;8.43;2.77;;;;;;;;;;4990055;28;20178;-71
2022/09/19 08:21:53;;;;;;;5.53;3.23;;;;;;;;;;4990679;28;20186;-72
2022/09/19 08:24:18;;;;;;;5.03;2.60;;;;;;;;;;4973546;28;20269;-71
2022/09/19 08:26:43;;;;;;;5.97;3.00;;;;;;;;;;4968523;28;20202;-71
2022/09/19 08:29:09;;;;;;;9.73;3.20;;;;;;;;;;4987340;28;20180;-72
2022/09/19 08:31:35;;;;;;;9.97;3.77;;;;;;;;;;4988353;28;20262;-72
2022/09/19 08:34:01;;;;;;;6.67;3.80;;;;;;;;;;4967237;28;20188;-72
2022/09/19 08:36:26;;;;;;;6.77;3.63;;;;;;;;;;4975706;28;20334;-72
2022/09/19 08:38:51;;;;;;;8.67;2.97;;;;;;;;;;4988626;28;20188;-72
2022/09/19 08:41:46;;;;;;;3.30;2.70;;;;;;;;;;4975005;28;20190;-72
2022/09/19 08:44:23;;;;;;;7.93;3.57;;;;;;;;;;4963038;28;20198;-71
2022/09/19 08:47:15;;;;;;;8.47;3.67;;;;;;;;;;4976711;28;20173;-71
2022/09/19 08:49:44;;;;;;;8.33;3.43;;;;;;;;;;4989231;28;20274;-71
2022/09/19 08:52:17;;;;;;;5.57;2.73;;;;;;;;;;4989214;28;20194;-71
2022/09/19 08:54:45;;;;;;;9.03;3.47;;;;;;;;;;4987758;28;20180;-72
2022/09/19 08:57:17;;;;;;;4.13;3.10;;;;;;;;;;5003145;28;20207;-72
2022/09/19 08:59:43;;;;;;;7.70;3.20;;;;;;;;;;4991696;28;20176;-72
2022/09/19 09:02:27;;;;;;;6.17;2.93;;;;;;;;;;4988158;28;20201;-71
2022/09/19 09:04:54;;;;;;;7.80;3.40;;;;;;;;;;5004614;28;20289;-72
2022/09/19 09:07:19;;;;;;;13.23;4.50;;;;;;;;;;4987872;28;20173;-73
2022/09/19 09:10:03;;;;;;;11.37;4.30;;;;;;;;;;5001484;28;20242;-71
2022/09/19 09:12:40;;;;;;;3.33;2.57;;;;;;;;;;4984570;28;20228;-71
2022/09/19 09:15:05;;;;;;;10.23;3.43;;;;;;;;;;4971303;28;20179;-72
2022/09/19 09:17:47;;;;;;;9.27;4.17;;;;;;;;;;5004014;28;20204;-71
2022/09/19 09:20:29;;;;;;;7.43;3.70;;;;;;;;;;4976821;28;20183;-72
2022/09/19 09:23:07;;;;;;;3.90;2.83;;;;;;;;;;4971598;28;20184;-71
2022/09/19 09:25:34;;;;;;;9.23;4.43;;;;;;;;;;4964429;28;20176;-72
2022/09/19 09:28:07;;;;;;;4.47;3.10;;;;;;;;;;4984068;28;20183;-71
2022/09/19 09:30:35;;;;;;;6.83;3.07;;;;;;;;;;4969398;28;20442;-72
2022/09/19 09:33:10;;;;;;;8.93;2.90;;;;;;;;;;4987173;28;20301;-71
2022/09/19 09:35:41;;;;;;;6.03;2.63;;;;;;;;;;4988558;28;20263;-71
2022/09/19 09:38:12;;;;;;;7.87;4.10;;;;;;;;;;4971825;28;20358;-72
2022/09/19 09:43:26;;;;;;;6.37;2.93;;;;;;;;;;4985453;28;20187;-72
2022/09/19 09:45:51;;;;;;;4.77;2.33;;;;;;;;;;4969050;28;20185;-72
2022/09/19 09:48:21;;;;;;;4.93;2.47;;;;;;;;;;4970696;28;20190;-72
2022/09/19 09:51:00;;;;;;;9.97;2.80;;;;;;;;;;4991249;28;20169;-71
2022/09/19 09:53:44;;;;;;;4.60;1.97;;;;;;;;;;4986222;28;20184;-71
2022/09/19 09:56:24;;;;;;;3.33;2.13;;;;;;;;;;4968425;28;20185;-71
2022/09/19 09:58:55;;;;;;;6.27;2.43;;;;;;;;;;4984882;28;20172;-71
2022/09/19 10:04:21;;;;;;;3.37;1.70;;;;;;;;;;4986575;28;20179;-72
2022/09/19 10:06:52;;;;;;;7.63;2.33;;;;;;;;;;4985808;28;20187;-72
2022/09/19 10:09:30;;;;;;;3.97;1.80;;;;;;;;;;4982510;28;20185;-71
2022/09/19 10:12:06;;;;;;;3.97;2.07;;;;;;;;;;5004239;28;20262;-71
2022/09/19 10:14:35;;;;;;;4.50;2.70;;;;;;;;;;4992140;28;20424;-71
2022/09/19 10:17:01;;;;;;;4.47;2.20;;;;;;;;;;4967450;28;20201;-72
2022/09/19 10:19:27;;;;;;;3.07;1.93;;;;;;;;;;4991265;28;20180;-72
2022/09/19 10:21:52;;;;;;;3.10;1.83;;;;;;;;;;5002478;28;20172;-71
2022/09/19 10:24:37;;;;;;;5.47;2.80;;;;;;;;;;4971174;28;20181;-71
2022/09/19 10:27:08;;;;;;;4.33;1.50;;;;;;;;;;4976575;28;20181;-72
2022/09/19 10:29:33;;;;;;;2.27;1.60;;;;;;;;;;4972779;28;20196;-72
2022/09/19 10:32:07;;;;;;;3.07;2.00;;;;;;;;;;4985087;28;20176;-72
2022/09/19 10:34:34;;;;;;;4.57;1.70;;;;;;;;;;4973733;28;20181;-72
2022/09/19 10:37:02;;;;;;;4.03;1.50;;;;;;;;;;4967146;28;20196;-72
2022/09/19 10:39:29;;;;;;;3.23;1.63;;;;;;;;;;4991564;28;20165;-72
2022/09/19 10:41:54;;;;;;;9.80;6.23;;;;;;;;;;5006206;28;20219;-72
2022/09/19 10:44:22;;;;;;;5.87;1.80;;;;;;;;;;5005574;28;20209;-72
2022/09/19 10:46:54;;;;;;;3.90;1.40;;;;;;;;;;4990337;28;20256;-71
2022/09/19 10:49:25;;;;;;;3.87;1.50;;;;;;;;;;4988670;28;20192;-71
2022/09/19 10:51:51;;;;;;;2.67;1.27;;;;;;;;;;4977270;28;20180;-72
2022/09/19 10:54:23;;;;;;;3.77;1.43;;;;;;;;;;4981490;28;20185;-72
2022/09/19 10:56:49;;;;;;;4.40;1.50;;;;;;;;;;4992032;28;20293;-72
2022/09/19 10:59:14;;;;;;;3.03;1.70;;;;;;;;;;4998798;28;20276;-72
2022/09/19 11:01:40;;;;;;;3.00;1.37;;;;;;;;;;4994906;28;20168;-72
2022/09/19 11:04:21;;;;;;;3.47;1.60;;;;;;;;;;4996617;28;20175;-72
2022/09/19 11:06:55;;;;;;;5.93;2.17;;;;;;;;;;4989160;28;20181;-72
2022/09/19 11:09:39;;;;;;;4.60;2.40;;;;;;;;;;4982302;28;20180;-72
2022/09/19 11:12:05;;;;;;;2.67;1.60;;;;;;;;;;4996985;28;20188;-72
2022/09/19 11:14:32;;;;;;;4.80;1.90;;;;;;;;;;4987157;28;20176;-72
2022/09/19 11:17:15;;;;;;;3.00;1.60;;;;;;;;;;4994881;28;20209;-72
2022/09/19 11:20:00;;;;;;;2.50;1.77;;;;;;;;;;4988338;28;20221;-71
2022/09/19 11:22:25;;;;;;;3.53;1.83;;;;;;;;;;4975601;28;20230;-72
2022/09/19 11:24:56;;;;;;;3.50;2.17;;;;;;;;;;4994724;28;20166;-72
2022/09/19 11:27:41;;;;;;;1.73;1.50;;;;;;;;;;4979064;28;20189;-72
2022/09/19 11:30:18;;;;;;;5.70;1.83;;;;;;;;;;4996201;28;20185;-72
2022/09/19 11:32:56;;;;;;;4.07;1.70;;;;;;;;;;4995127;28;20170;-72
2022/09/19 11:35:28;;;;;;;4.77;1.90;;;;;;;;;;4977101;28;20189;-71
2022/09/19 11:38:02;;;;;;;3.83;1.77;;;;;;;;;;4995669;28;20295;-72
2022/09/19 11:40:40;;;;;;;4.47;1.53;;;;;;;;;;4977942;28;20250;-72
2022/09/19 11:43:20;;;;;;;2.53;1.30;;;;;;;;;;4995528;28;20210;-72
2022/09/19 11:46:09;;;;;;;1.63;1.40;;;;;;;;;;4978464;28;20342;-72
2022/09/19 11:48:54;;;;;;;3.50;1.77;;;;;;;;;;4977428;28;20183;-72
2022/09/19 11:51:35;;;;;;;6.87;1.87;;;;;;;;;;5003108;28;20185;-72
2022/09/19 11:54:07;;;;;;;6.63;2.27;;;;;;;;;;4981226;28;20176;-72
2022/09/19 11:56:38;;;;;;;3.90;1.97;;;;;;;;;;5007496;28;20187;-72
2022/09/19 11:59:15;;;;;;;3.43;2.90;;;;;;;;;;5013289;28;20186;-72
2022/09/19 12:01:54;;;;;;;2.70;1.20;;;;;;;;;;4987181;28;20191;-72
2022/09/19 12:04:32;;;;;;;3.93;1.50;;;;;;;;;;4989404;28;20190;-72
2022/09/19 12:07:10;;;;;;;5.23;2.57;;;;;;;;;;4980107;28;20303;-72
2022/09/19 12:09:38;;;;;;;2.03;1.50;;;;;;;;;;4976260;28;20389;-72
2022/09/19 12:12:09;;;;;;;3.83;2.10;;;;;;;;;;4993526;28;20251;-72
2022/09/19 12:14:41;;;;;;;3.90;1.80;;;;;;;;;;4978304;28;20188;-72
2022/09/19 12:17:16;;;;;;;4.73;2.30;;;;;;;;;;4995568;28;20500;-72
2022/09/19 12:19:45;;;;;;;2.30;2.10;;;;;;;;;;4977064;28;20214;-72
2022/09/19 12:22:23;;;;;;;1.67;1.50;;;;;;;;;;4997482;28;20184;-72
2022/09/19 12:24:52;;;;;;;3.47;1.90;;;;;;;;;;4995100;28;20174;-72
2022/09/19 12:27:20;;;;;;;4.33;1.80;;;;;;;;;;4976510;28;20187;-72
2022/09/19 12:29:49;;;;;;;3.50;1.50;;;;;;;;;;4997318;28;20190;-72
2022/09/19 12:32:38;;;;;;;2.20;1.47;;;;;;;;;;4993200;28;20266;-72
2022/09/19 12:35:04;;;;;;;4.63;1.93;;;;;;;;;;4968602;28;20194;-72
2022/09/19 12:37:39;;;;;;;3.67;1.50;;;;;;;;;;4975830;28;20209;-72
2022/09/19 12:40:24;;;;;;;1.83;1.70;;;;;;;;;;5005968;28;20180;-72
2022/09/19 12:42:56;;;;;;;3.20;1.67;;;;;;;;;;4993584;28;20173;-72
2022/09/19 12:45:29;;;;;;;3.17;2.10;;;;;;;;;;4994013;28;20188;-72
2022/09/19 12:48:01;;;;;;;2.17;1.43;;;;;;;;;;4986407;28;20178;-72
2022/09/19 12:50:34;;;;;;;2.33;1.40;;;;;;;;;;4976007;28;20297;-72
2022/09/19 12:52:59;;;;;;;3.70;1.40;;;;;;;;;;5005475;28;20179;-72
2022/09/19 12:55:28;;;;;;;7.07;2.30;;;;;;;;;;4976998;28;20194;-72
2022/09/19 12:57:53;;;;;;;3.73;1.50;;;;;;;;;;5007806;28;20606;-72
2022/09/19 13:00:20;;;;;;;3.67;2.20;;;;;;;;;;4975513;28;20206;-72
2022/09/19 13:03:07;;;;;;;4.80;1.70;;;;;;;;;;4994247;28;20178;-72
2022/09/19 13:05:37;;;;;;;2.47;1.30;;;;;;;;;;4987912;28;20207;-72
2022/09/19 13:08:16;;;;;;;2.83;1.77;;;;;;;;;;4994020;28;20229;-72
2022/09/19 13:10:41;;;;;;;3.70;1.70;;;;;;;;;;4988877;28;20501;-72
2022/09/19 13:13:09;;;;;;;4.33;1.70;;;;;;;;;;4991613;28;20317;-72
2022/09/19 13:15:34;;;;;;;20.50;12.33;;;;;;;;;;5007071;28;20182;-72
2022/09/19 13:23:39;;;;;;;2.20;1.27;;;;;;;;;;4990673;28;20172;-72
2022/09/19 13:26:17;;;;;;;1.50;1.10;;;;;;;;;;4977050;28;20176;-72
2022/09/19 13:28:52;;;;;;;3.47;1.60;;;;;;;;;;4975966;28;20313;-72
2022/09/19 13:31:19;;;;;;;3.97;1.90;;;;;;;;;;4992331;28;20182;-72
2022/09/19 13:33:57;;;;;;;3.07;1.47;;;;;;;;;;4992328;28;20192;-72
2022/09/19 13:36:22;;;;;;;5.77;1.63;;;;;;;;;;4990846;28;20220;-72
2022/09/19 13:38:53;;;;;;;3.00;1.30;;;;;;;;;;4976395;28;20181;-72
2022/09/19 13:41:48;;;;;;;2.20;1.40;;;;;;;;;;4976656;28;20219;-72
2022/09/19 13:44:13;;;;;;;1.83;1.40;;;;;;;;;;4950927;28;20764;-72
2022/09/19 13:46:57;;;;;;;2.37;1.60;;;;;;;;;;5006103;28;20182;-77
2022/09/19 13:49:30;;;;;;;2.50;1.70;;;;;;;;;;4971468;28;20198;-74
2022/09/19 13:52:02;;;;;;;6.10;1.43;;;;;;;;;;4986350;28;20186;-79
2022/09/19 13:54:31;;;;;;;3.70;2.17;;;;;;;;;;4979436;28;20184;-79
2022/09/19 13:57:02;;;;;;;29.20;16.37;;;;;;;;;;4985600;28;20208;-79
2022/09/19 13:59:45;;;;;;;18.10;9.67;;;;;;;;;;4973481;28;20179;-80
2022/09/19 14:02:10;;;;;;;16.73;10.40;;;;;;;;;;4970971;28;20222;-79
2022/09/19 14:04:54;;;;;;;4.80;2.97;;;;;;;;;;4980826;28;20205;-80
2022/09/19 14:07:28;;;;;;;4.97;2.30;;;;;;;;;;4973362;28;20219;-79
2022/09/19 14:09:54;;;;;;;2.83;1.90;;;;;;;;;;4974552;28;20177;-79
2022/09/19 14:12:39;;;;;;;3.77;3.47;;;;;;;;;;4999193;28;20254;-80
2022/09/19 14:15:24;;;;;;;9.07;3.70;;;;;;;;;;4994841;28;20194;-80
2022/09/19 14:18:16;;;;;;;3.23;2.50;;;;;;;;;;4968947;28;20203;-79
2022/09/19 14:20:44;;;;;;;6.13;2.03;;;;;;;;;;4950643;28;20210;-80
2022/09/19 14:23:10;;;;;;;2.00;1.50;;;;;;;;;;4968600;28;20185;-80
2022/09/19 14:25:36;;;;;;;4.30;1.70;;;;;;;;;;4980357;28;20182;-80
2022/09/19 14:28:22;;;;;;;3.37;1.57;;;;;;;;;;4979451;28;20228;-80
2022/09/19 14:30:56;;;;;;;2.70;1.63;;;;;;;;;;4989724;28;20186;-79
2022/09/19 14:33:40;;;;;;;2.47;1.93;;;;;;;;;;4979498;28;20182;-80
2022/09/19 14:36:41;;;;;;;3.60;1.70;;;;;;;;;;5005437;28;20218;-80
2022/09/19 14:39:25;;;;;;;4.30;1.57;;;;;;;;;;4930228;29;20186;-79
2022/09/19 14:42:20;;;;;;;2.40;1.50;;;;;;;;;;4989325;28;20186;-80
2022/09/19 14:44:58;;;;;;;3.20;1.70;;;;;;;;;;4943592;28;20184;-79
2022/09/19 14:47:35;;;;;;;3.60;2.20;;;;;;;;;;4981094;28;20212;-79
2022/09/19 14:50:03;;;;;;;4.07;1.60;;;;;;;;;;5006560;28;20179;-80
2022/09/19 14:52:29;;;;;;;3.03;1.77;;;;;;;;;;4978735;28;20193;-79
2022/09/19 14:55:00;;;;;;;2.97;1.80;;;;;;;;;;4977116;28;20240;-80
2022/09/19 14:57:25;;;;;;;3.90;1.97;;;;;;;;;;4974868;28;20238;-79
2022/09/19 14:59:52;;;;;;;3.30;2.03;;;;;;;;;;4979973;28;20215;-79
2022/09/19 15:02:19;;;;;;;3.57;2.00;;;;;;;;;;4987191;28;20189;-79
2022/09/19 15:04:48;;;;;;;2.83;2.40;;;;;;;;;;4999223;28;20228;-79
2022/09/19 15:07:15;;;;;;;3.50;1.70;;;;;;;;;;4976519;28;20218;-79
2022/09/19 15:09:41;;;;;;;2.77;1.50;;;;;;;;;;4978201;28;20251;-80
2022/09/19 15:12:13;;;;;;;3.33;2.03;;;;;;;;;;5007226;28;20182;-79
2022/09/19 15:15:01;;;;;;;4.73;1.70;;;;;;;;;;4972748;28;20281;-79
2022/09/19 15:17:29;;;;;;;3.00;1.53;;;;;;;;;;4968024;28;20202;-80